Terminal Aerodrome Forecast
Issued by NWS

Home | Current Version | Previous Version | Text Only | Print | Product List | Glossary On
Versions: 1 2 3 4 5 6 7 8 9 10 11 12 13 14 15 16 17 18 19 20 21 22 23 24 25 26 27
000
FTUS41 KOKX 221531 AAB
TAFHPN
TAF AMD
KHPN 221531Z 2216/2312 19007KT P6SM FEW025 BKN250
     FM221800 20010G17KT P6SM SCT040 BKN250
     FM222000 19012G20KT P6SM SCT050 BKN250
     FM230200 20012G20KT P6SM VCSH SCT015 BKN050 PROB30 2303/2307
      5SM TSRA BKN025 BKN050CB
     FM230700 25008KT P6SM VCSH SCT025 BKN040
      AMD NOT SKED=

USA.gov is the U.S. government's official web portal to all federal, state and local government web resources and services.